Time;durP1;ratioP1;P1;durP2;ratioP2;P2;SDS_P1;SDS_P2;PMS_P1;PMS_P2;Temp;Humidity;BMP_temperature;BMP_pressure;BME280_temperature;BME280_humidity;BME280_pressure;Samples;Min_cycle;Max_cycle;Signal;HPM_P1;HPM_P2
2022/10/27 00:02:24;;;;;;;;;;;;;;;26.54;46.36;94975.53;4986593;28;7265;-61
2022/10/27 00:04:53;;;;;;;;;;;;;;;26.52;46.22;94983.56;4997174;28;7799;-61
2022/10/27 00:07:19;;;;;;;;;;;;;;;26.53;46.52;94974.81;4978005;28;7280;-62
2022/10/27 00:09:56;;;;;;;;;;;;;;;26.54;46.60;94970.03;4971015;28;9819;-61
2022/10/27 00:12:37;;;;;;;;;;;;;;;26.53;46.59;94968.53;4987505;28;8418;-61
2022/10/27 00:15:21;;;;;;;;;;;;;;;26.53;46.19;94971.31;5008277;28;8204;-61
2022/10/27 00:17:49;;;;;;;;;;;;;;;26.53;46.45;94968.53;5015564;28;7247;-61
2022/10/27 00:20:17;;;;;;;;;;;;;;;26.52;46.64;94967.78;5023899;28;9304;-61
2022/10/27 00:22:45;;;;;;;;;;;;;;;26.54;45.83;94970.03;5013333;28;9090;-61
2022/10/27 00:25:11;;;;;;;;;;;;;;;26.51;46.77;94965.53;5016840;28;7067;-61
2022/10/27 00:27:36;;;;;;;;;;;;;;;26.52;46.17;94969.78;5013420;28;7221;-61
2022/10/27 00:30:13;;;;;;;;;;;;;;;26.52;46.41;94967.03;5028761;28;7290;-61
2022/10/27 00:32:59;;;;;;;;;;;;;;;26.51;46.78;94966.25;4998040;28;7566;-61
2022/10/27 00:35:29;;;;;;;;;;;;;;;26.52;46.36;94978.06;5000561;28;7266;-62
2022/10/27 00:38:00;;;;;;;;;;;;;;;26.52;46.53;94975.31;5014430;28;7313;-62
2022/10/27 00:40:26;;;;;;;;;;;;;;;26.52;46.22;94978.06;5013837;28;9246;-61
2022/10/27 00:42:52;;;;;;;;;;;;;;;26.50;45.94;94975.81;5046072;28;9512;-61
2022/10/27 00:45:19;;;;;;;;;;;;;;;26.50;46.26;94984.09;5014707;28;7516;-61
2022/10/27 00:47:49;;;;;;;;;;;;;;;26.50;46.32;94986.09;5001213;28;7249;-61
2022/10/27 00:50:29;;;;;;;;;;;;;;;26.50;46.33;94983.31;5012584;28;7212;-61
2022/10/27 00:53:07;;;;;;;;;;;;;;;26.48;46.01;94983.09;5009926;28;7221;-61
2022/10/27 00:55:40;;;;;;;;;;;;;;;26.47;46.01;94990.59;5013202;28;7219;-61
2022/10/27 00:58:20;;;;;;;;;;;;;;;26.47;46.13;94992.63;5014824;28;7360;-61
2022/10/27 01:00:46;;;;;;;;;;;;;;;26.46;46.26;94989.09;5013084;28;7097;-61
2022/10/27 01:03:28;;;;;;;;;;;;;;;26.48;46.08;94988.59;5029521;28;8992;-61
2022/10/27 01:05:57;;;;;;;;;;;;;;;26.48;46.14;94985.84;5047778;28;7267;-61
2022/10/27 01:08:27;;;;;;;;;;;;;;;26.46;46.58;94983.59;5026839;28;9486;-61
2022/10/27 01:10:54;;;;;;;;;;;;;;;26.46;46.47;94975.31;5012007;28;6972;-62
2022/10/27 01:13:23;;;;;;;;;;;;;;;26.46;46.28;94980.06;5014171;28;7213;-61
2022/10/27 01:16:08;;;;;;;;;;;;;;;26.46;46.33;94991.09;5017897;28;7227;-61
2022/10/27 01:19:37;;;;;;;;;;;;;;;26.45;45.92;94984.06;5008635;28;7041;-61
2022/10/27 01:22:34;;;;;;;;;;;;;;;26.43;46.17;94989.34;4956694;28;7124;-61
2022/10/27 01:25:18;;;;;;;;;;;;;;;26.43;46.44;94986.59;4954183;28;7122;-61
2022/10/27 01:28:19;;;;;;;;;;;;;;;26.43;46.04;94989.34;4976934;28;7604;-61
2022/10/27 01:31:13;;;;;;;;;;;;;;;26.41;46.79;94989.09;4934444;29;7235;-61
2022/10/27 01:33:49;;;;;;;;;;;;;;;26.41;46.67;94989.09;4930394;29;7360;-61
2022/10/27 01:36:37;;;;;;;;;;;;;;;26.38;46.32;94988.09;4917442;29;7188;-61
2022/10/27 01:39:32;;;;;;;;;;;;;;;26.37;46.24;94981.09;4934667;29;9080;-61
2022/10/27 01:42:10;;;;;;;;;;;;;;;26.32;46.04;94981.81;4935529;29;8738;-61
2022/10/27 01:44:53;;;;;;;;;;;;;;;26.33;46.70;94988.84;4928238;29;7296;-61
2022/10/27 01:47:30;;;;;;;;;;;;;;;26.33;46.34;94986.09;4936009;28;7202;-61
2022/10/27 01:50:36;;;;;;;;;;;;;;;26.35;46.52;94985.59;4949668;28;7204;-61
2022/10/27 01:53:05;;;;;;;;;;;;;;;26.33;46.11;94980.59;4935385;28;9399;-61
2022/10/27 01:55:41;;;;;;;;;;;;;;;26.34;46.33;94987.59;4918739;29;7237;-61
2022/10/27 01:59:04;;;;;;;;;;;;;;;26.33;46.52;94988.09;4934852;28;7505;-61
2022/10/27 02:01:33;;;;;;;;;;;;;;;26.33;46.65;94993.63;4936702;28;7110;-61
2022/10/27 02:04:27;;;;;;;;;;;;;;;26.32;46.75;94995.63;4953624;28;7693;-61
2022/10/27 02:07:46;;;;;;;;;;;;;;;26.28;46.87;95003.38;4859025;29;7486;-61
2022/10/27 02:10:23;;;;;;;;;;;;;;;26.29;46.22;94998.63;4842336;29;9032;-61
2022/10/27 02:13:15;;;;;;;;;;;;;;;26.29;46.40;95004.16;4853813;29;7313;-61
2022/10/27 02:16:03;;;;;;;;;;;;;;;26.31;46.76;95001.63;4857998;29;6994;-61
2022/10/27 02:18:47;;;;;;;;;;;;;;;26.32;46.04;95008.69;4859020;29;8632;-61
2022/10/27 02:21:45;;;;;;;;;;;;;;;26.31;46.87;95002.41;4859107;29;9350;-61
2022/10/27 02:24:22;;;;;;;;;;;;;;;26.32;46.38;94998.38;4839307;29;9351;-61
2022/10/27 02:27:04;;;;;;;;;;;;;;;26.29;46.79;95004.91;4845633;29;7186;-61
2022/10/27 02:29:40;;;;;;;;;;;;;;;26.30;46.52;95000.13;4859047;29;9618;-61
2022/10/27 02:32:19;;;;;;;;;;;;;;;26.29;46.26;95004.16;4858855;29;7280;-61
2022/10/27 02:34:51;;;;;;;;;;;;;;;26.27;46.55;95001.91;4864184;29;9380;-61
2022/10/27 02:37:27;;;;;;;;;;;;;;;26.26;46.87;95003.13;4890802;29;8351;-62
2022/10/27 02:40:03;;;;;;;;;;;;;;;26.26;46.61;95000.38;4883774;29;7186;-61
2022/10/27 02:42:30;;;;;;;;;;;;;;;26.25;46.11;95006.41;4886339;29;7455;-61
2022/10/27 02:44:58;;;;;;;;;;;;;;;26.23;46.13;95012.41;5010109;28;7633;-61
2022/10/27 02:47:24;;;;;;;;;;;;;;;26.21;46.94;95011.41;5012186;28;10839;-61
2022/10/27 02:50:11;;;;;;;;;;;;;;;26.19;46.55;95008.41;5006162;28;8740;-62
2022/10/27 02:53:01;;;;;;;;;;;;;;;26.19;46.28;95008.41;5020218;28;9767;-62
2022/10/27 02:55:29;;;;;;;;;;;;;;;26.15;46.85;95006.66;5005160;28;7341;-60
2022/10/27 02:58:07;;;;;;;;;;;;;;;26.13;46.44;95006.41;5005379;28;7507;-61
2022/10/27 03:00:34;;;;;;;;;;;;;;;26.17;46.79;95006.91;5007310;28;9060;-61
2022/10/27 03:03:03;;;;;;;;;;;;;;;26.20;46.59;95009.91;5012587;28;7275;-61
2022/10/27 03:06:02;;;;;;;;;;;;;;;26.20;46.87;94999.63;5011685;28;7259;-61
2022/10/27 03:08:28;;;;;;;;;;;;;;;26.19;47.00;95006.38;4974560;28;7220;-61
2022/10/27 03:11:03;;;;;;;;;;;;;;;26.20;46.34;95016.19;4987235;28;6996;-61
2022/10/27 03:13:39;;;;;;;;;;;;;;;26.19;46.70;95016.69;4991499;28;7413;-61
2022/10/27 03:16:07;;;;;;;;;;;;;;;26.18;46.07;95013.16;4993022;28;7323;-62
2022/10/27 03:18:32;;;;;;;;;;;;;;;26.16;46.44;95016.41;4982099;28;9030;-61
2022/10/27 03:21:00;;;;;;;;;;;;;;;26.16;46.28;95013.66;4999006;28;7265;-62
2022/10/27 03:23:28;;;;;;;;;;;;;;;26.20;46.63;95020.94;4989836;28;7215;-61
2022/10/27 03:25:59;;;;;;;;;;;;;;;26.19;46.43;95022.94;4977756;28;7470;-61
2022/10/27 03:28:28;;;;;;;;;;;;;;;26.21;46.51;95025.22;4994854;28;7390;-61
2022/10/27 03:31:04;;;;;;;;;;;;;;;26.19;46.72;95020.19;4986287;28;8244;-61
2022/10/27 03:33:31;;;;;;;;;;;;;;;26.19;46.83;95024.97;4972195;28;7329;-61
2022/10/27 03:36:16;;;;;;;;;;;;;;;26.19;46.13;95022.94;4986806;28;9128;-61
2022/10/27 03:39:00;;;;;;;;;;;;;;;26.19;46.21;95024.97;5007494;28;7294;-61
2022/10/27 03:41:40;;;;;;;;;;;;;;;26.16;46.30;95021.19;4982782;28;6988;-61
2022/10/27 03:44:18;;;;;;;;;;;;;;;26.16;46.73;95021.91;5023800;28;7122;-61
2022/10/27 03:46:49;;;;;;;;;;;;;;;26.16;46.34;95018.44;5025391;28;7037;-61
2022/10/27 03:49:24;;;;;;;;;;;;;;;26.14;46.45;95016.16;5012205;28;7325;-61
2022/10/27 03:52:02;;;;;;;;;;;;;;;26.14;46.48;95021.66;5017317;28;7132;-61
2022/10/27 03:54:40;;;;;;;;;;;;;;;26.15;46.95;95025.94;5018471;28;7883;-61
2022/10/27 03:57:11;;;;;;;;;;;;;;;26.14;46.34;95027.19;5039809;28;7409;-61
2022/10/27 03:59:49;;;;;;;;;;;;;;;26.14;46.95;95023.69;5011828;28;7002;-61
2022/10/27 04:02:16;;;;;;;;;;;;;;;26.10;46.10;95021.16;5003597;28;6971;-62
2022/10/27 04:05:01;;;;;;;;;;;;;;;26.13;46.14;95039.47;5015987;28;7352;-61
2022/10/27 04:07:28;;;;;;;;;;;;;;;26.14;46.36;95029.22;5005527;28;7313;-61
2022/10/27 04:10:17;;;;;;;;;;;;;;;26.14;46.40;95031.97;4993314;28;8697;-61
2022/10/27 04:12:55;;;;;;;;;;;;;;;26.14;46.89;95032.69;5033840;28;7380;-61
2022/10/27 04:15:29;;;;;;;;;;;;;;;26.12;46.83;95029.69;5021301;28;7351;-61
2022/10/27 04:18:06;;;;;;;;;;;;;;;26.13;46.75;95035.97;5024156;28;7145;-61
2022/10/27 04:20:40;;;;;;;;;;;;;;;26.13;45.93;95031.22;5002123;28;7654;-61
2022/10/27 04:23:11;;;;;;;;;;;;;;;26.15;45.98;95039.72;5023254;28;7157;-61
2022/10/27 04:25:39;;;;;;;;;;;;;;;26.13;46.58;95036.72;5010349;28;7846;-61
2022/10/27 04:28:07;;;;;;;;;;;;;;;26.13;46.25;95039.47;5020341;28;7074;-61
2022/10/27 04:30:33;;;;;;;;;;;;;;;26.13;46.19;95041.47;5025298;28;9441;-61
2022/10/27 04:32:59;;;;;;;;;;;;;;;26.10;46.77;95031.44;5009163;28;7366;-61
2022/10/27 04:35:28;;;;;;;;;;;;;;;26.08;46.75;95042.97;5027490;28;7044;-61
2022/10/27 04:38:03;;;;;;;;;;;;;;;26.08;46.23;95040.22;5021957;28;7393;-61
2022/10/27 04:40:48;;;;;;;;;;;;;;;26.07;46.86;95040.69;5022155;28;9363;-61
2022/10/27 04:43:15;;;;;;;;;;;;;;;26.05;46.32;95035.69;5031084;28;7200;-61
2022/10/27 04:45:47;;;;;;;;;;;;;;;26.06;46.80;95041.94;5011521;28;7179;-61
2022/10/27 04:48:14;;;;;;;;;;;;;;;26.03;46.91;95049.19;5016598;28;7118;-62
2022/10/27 04:51:12;;;;;;;;;;;;;;;26.05;47.07;95048.72;5018082;28;7321;-61
2022/10/27 04:53:39;;;;;;;;;;;;;;;26.03;47.09;95045.69;4974628;28;7231;-61
2022/10/27 04:56:11;;;;;;;;;;;;;;;26.03;46.86;95037.44;4985495;28;7407;-61
2022/10/27 04:58:48;;;;;;;;;;;;;;;26.03;46.79;95045.69;4973368;28;9303;-61
2022/10/27 05:01:22;;;;;;;;;;;;;;;26.01;46.64;95032.41;4990157;28;9627;-61
2022/10/27 05:04:17;;;;;;;;;;;;;;;26.03;46.32;95040.19;4982019;28;7104;-61
2022/10/27 05:06:55;;;;;;;;;;;;;;;26.01;46.81;95034.41;4908443;29;7177;-61
2022/10/27 05:09:29;;;;;;;;;;;;;;;25.99;46.67;95040.41;4919740;29;7144;-61
2022/10/27 05:12:13;;;;;;;;;;;;;;;25.97;46.72;95042.16;4910092;29;7362;-61
2022/10/27 05:14:40;;;;;;;;;;;;;;;25.98;46.13;95038.91;4918869;29;9446;-61
2022/10/27 05:17:23;;;;;;;;;;;;;;;25.98;46.39;95035.41;4908920;29;7006;-61
2022/10/27 05:19:50;;;;;;;;;;;;;;;25.97;46.68;95042.91;4921986;29;8621;-61
2022/10/27 05:22:17;;;;;;;;;;;;;;;25.91;46.75;95041.41;4910041;29;7504;-61
2022/10/27 05:24:43;;;;;;;;;;;;;;;25.90;47.24;95040.63;4915538;29;7400;-61
2022/10/27 05:27:11;;;;;;;;;;;;;;;25.90;46.28;95039.91;4900403;29;7220;-61
2022/10/27 05:29:39;;;;;;;;;;;;;;;25.91;46.57;95039.41;4925162;28;6984;-61
2022/10/27 05:32:06;;;;;;;;;;;;;;;25.90;47.33;95039.91;4936698;28;7274;-61
2022/10/27 05:34:33;;;;;;;;;;;;;;;25.89;47.02;95035.63;4950976;28;7239;-61
2022/10/27 05:37:01;;;;;;;;;;;;;;;25.92;47.00;95032.66;4936620;28;7221;-61
2022/10/27 05:39:28;;;;;;;;;;;;;;;25.93;46.60;95034.13;4937645;28;8528;-62
2022/10/27 05:42:02;;;;;;;;;;;;;;;25.95;47.10;95039.91;4936722;28;7276;-62
2022/10/27 05:44:28;;;;;;;;;;;;;;;25.97;46.27;95045.66;5004995;28;6921;-61
2022/10/27 05:46:55;;;;;;;;;;;;;;;25.98;46.76;95044.44;5011289;28;7052;-61
2022/10/27 05:49:23;;;;;;;;;;;;;;;25.98;46.60;95047.19;5011820;28;7227;-62
2022/10/27 05:52:02;;;;;;;;;;;;;;;26.00;45.95;95046.69;5041689;28;9224;-61
2022/10/27 05:54:33;;;;;;;;;;;;;;;25.97;46.27;95051.19;5008251;28;6999;-61
2022/10/27 05:57:03;;;;;;;;;;;;;;;25.93;45.91;95056.19;5023208;28;7338;-61
2022/10/27 05:59:35;;;;;;;;;;;;;;;25.90;46.55;95059.94;5009968;28;7007;-61
2022/10/27 06:02:01;;;;;;;;;;;;;;;25.89;46.02;95060.44;5011405;28;9221;-61
2022/10/27 06:04:41;;;;;;;;;;;;;;;25.90;45.97;95061.94;5010239;28;7350;-61
2022/10/27 06:07:07;;;;;;;;;;;;;;;25.88;46.31;95070.69;5008224;28;8416;-61
2022/10/27 06:09:34;;;;;;;;;;;;;;;25.87;46.78;95069.22;5026263;28;7247;-61
2022/10/27 06:12:03;;;;;;;;;;;;;;;25.86;46.26;95067.69;5001172;28;7227;-61
2022/10/27 06:14:29;;;;;;;;;;;;;;;25.89;46.49;95071.47;5009581;28;7130;-61
2022/10/27 06:16:59;;;;;;;;;;;;;;;25.92;46.19;95070.47;5008714;28;7292;-60
2022/10/27 06:19:25;;;;;;;;;;;;;;;25.94;46.30;95068.72;5023362;28;7533;-61
2022/10/27 06:22:22;;;;;;;;;;;;;;;25.97;46.35;95069.72;5024640;28;6984;-61
2022/10/27 06:24:47;;;;;;;;;;;;;;;25.95;46.64;95063.94;5000547;28;9276;-61
2022/10/27 06:27:16;;;;;;;;;;;;;;;25.97;45.89;95078.75;4969797;28;7223;-61
2022/10/27 06:29:41;;;;;;;;;;;;;;;25.96;45.93;95082.78;4981510;28;7076;-61
2022/10/27 06:32:12;;;;;;;;;;;;;;;25.97;46.02;95087.00;4971510;28;7137;-61
2022/10/27 06:34:38;;;;;;;;;;;;;;;25.99;45.54;95090.03;4987930;28;9316;-61
2022/10/27 06:37:04;;;;;;;;;;;;;;;25.95;45.99;95089.53;4963448;28;7271;-61
2022/10/27 06:39:56;;;;;;;;;;;;;;;25.89;46.35;95094.25;4984466;28;7234;-61
2022/10/27 06:42:31;;;;;;;;;;;;;;;25.89;46.36;95083.25;4967211;28;7416;-61
2022/10/27 06:45:07;;;;;;;;;;;;;;;25.89;46.68;95086.00;4962637;28;7252;-61
2022/10/27 06:47:33;;;;;;;;;;;;;;;25.89;46.42;95086.00;4972802;28;7631;-61
2022/10/27 06:50:01;;;;;;;;;;;;;;;25.89;46.58;95088.75;4953822;28;7245;-59
2022/10/27 06:52:37;;;;;;;;;;;;;;;25.92;46.74;95095.28;4960156;28;7103;-59
2022/10/27 06:55:09;;;;;;;;;;;;;;;25.92;46.26;95100.78;4980163;28;7554;-58
2022/10/27 06:57:50;;;;;;;;;;;;;;;25.90;46.34;95101.28;4966526;28;6992;-59
2022/10/27 07:00:28;;;;;;;;;;;;;;;25.92;46.30;95115.34;4961205;28;7206;-59
2022/10/27 07:03:08;;;;;;;;;;;;;;;25.91;45.99;95108.31;5012139;28;7151;-59
2022/10/27 07:05:40;;;;;;;;;;;;;;;25.92;46.70;95107.06;5003680;28;7247;-59
2022/10/27 07:08:18;;;;;;;;;;;;;;;25.92;46.43;95107.06;5022097;28;7080;-59
2022/10/27 07:10:44;;;;;;;;;;;;;;;25.89;46.37;95108.03;5010526;28;8640;-59
2022/10/27 07:13:18;;;;;;;;;;;;;;;25.90;46.53;95117.06;5008173;28;10304;-59
2022/10/27 07:15:43;;;;;;;;;;;;;;;25.89;46.41;95121.81;5010131;28;7268;-58
2022/10/27 07:18:14;;;;;;;;;;;;;;;25.89;46.89;95121.06;5024810;28;7164;-59
2022/10/27 07:20:45;;;;;;;;;;;;;;;25.89;46.70;95124.59;5010543;28;7135;-58
2022/10/27 07:23:13;;;;;;;;;;;;;;;25.89;46.73;95121.81;5005468;28;7013;-58
2022/10/27 07:25:43;;;;;;;;;;;;;;;25.92;46.06;95125.59;5008866;28;7096;-59
2022/10/27 07:28:09;;;;;;;;;;;;;;;25.90;46.58;95126.06;5007382;28;7075;-59
2022/10/27 07:30:47;;;;;;;;;;;;;;;25.89;46.79;95121.06;5009112;28;7215;-59
2022/10/27 07:33:14;;;;;;;;;;;;;;;25.87;46.61;95129.84;5011116;28;7072;-59
2022/10/27 07:35:46;;;;;;;;;;;;;;;25.89;46.20;95119.06;5008999;28;7906;-59
2022/10/27 07:38:44;;;;;;;;;;;;;;;25.90;46.66;95125.34;5010809;28;7234;-59
2022/10/27 07:41:18;;;;;;;;;;;;;;;25.88;45.64;95120.31;5004509;28;7780;-59
2022/10/27 07:43:47;;;;;;;;;;;;;;;25.89;46.29;95132.09;5010901;28;7339;-59
2022/10/27 07:46:21;;;;;;;;;;;;;;;25.88;46.53;95125.09;5004852;28;7229;-59
2022/10/27 07:48:58;;;;;;;;;;;;;;;25.86;46.57;95135.84;4993618;28;7271;-59
2022/10/27 07:51:35;;;;;;;;;;;;;;;25.87;46.28;95132.59;4996145;28;7012;-59
2022/10/27 07:54:02;;;;;;;;;;;;;;;25.86;46.17;95133.09;5009130;28;6972;-59
2022/10/27 07:56:37;;;;;;;;;;;;;;;25.87;46.03;95131.84;4992887;28;9416;-59
2022/10/27 07:59:15;;;;;;;;;;;;;;;25.86;46.31;95131.06;5001278;28;7993;-58
2022/10/27 08:01:52;;;;;;;;;;;;;;;25.85;46.52;95134.34;5025356;28;7085;-59
2022/10/27 08:04:27;;;;;;;;;;;;;;;25.84;46.24;95125.31;5006924;28;8727;-59
2022/10/27 08:07:12;;;;;;;;;;;;;;;25.81;46.31;95126.31;5009538;28;7185;-59
2022/10/27 08:09:37;;;;;;;;;;;;;;;25.83;45.99;95134.06;5006036;28;7371;-59
2022/10/27 08:12:12;;;;;;;;;;;;;;;25.77;46.83;95138.81;5003992;28;7408;-59
2022/10/27 08:14:56;;;;;;;;;;;;;;;25.75;45.99;95133.03;5023824;28;7235;-59
2022/10/27 08:17:32;;;;;;;;;;;;;;;25.72;46.74;95139.53;5002256;28;7241;-59
2022/10/27 08:20:01;;;;;;;;;;;;;;;25.76;46.39;95140.03;5020507;28;7225;-59
2022/10/27 08:22:27;;;;;;;;;;;;;;;25.78;47.29;95135.56;5007139;28;7030;-59
2022/10/27 08:24:58;;;;;;;;;;;;;;;25.79;46.05;95136.31;5019486;28;8920;-58
2022/10/27 08:27:26;;;;;;;;;;;;;;;25.81;46.19;95142.84;5006011;28;7273;-59
2022/10/27 08:29:52;;;;;;;;;;;;;;;25.80;46.43;95141.31;5004871;28;10198;-59
2022/10/27 08:32:24;;;;;;;;;;;;;;;25.79;46.84;95150.09;5017577;28;6847;-58
2022/10/27 08:34:56;;;;;;;;;;;;;;;25.79;47.01;95147.34;5012358;28;7326;-59
2022/10/27 08:37:27;;;;;;;;;;;;;;;25.81;46.22;95153.09;5030476;28;7083;-59
2022/10/27 08:40:01;;;;;;;;;;;;;;;25.79;46.66;95150.84;5030475;28;6990;-59
2022/10/27 08:42:43;;;;;;;;;;;;;;;25.77;46.77;95145.09;5012350;28;9940;-60
2022/10/27 08:45:33;;;;;;;;;;;;;;;25.81;46.70;95139.31;5031105;28;7129;-60
2022/10/27 08:48:10;;;;;;;;;;;;;;;25.80;46.78;95144.09;5014266;28;7283;-60
2022/10/27 08:50:43;;;;;;;;;;;;;;;25.81;47.04;95131.06;5015168;28;6965;-60
2022/10/27 08:53:27;;;;;;;;;;;;;;;25.82;46.83;95144.34;5013377;28;8987;-60
2022/10/27 08:56:05;;;;;;;;;;;;;;;25.82;46.67;95149.09;5025963;28;8953;-60
2022/10/27 08:58:46;;;;;;;;;;;;;;;25.82;46.38;95138.81;5014660;28;7165;-61
2022/10/27 09:01:25;;;;;;;;;;;;;;;25.80;47.07;95144.09;5008225;28;7147;-61
2022/10/27 09:04:03;;;;;;;;;;;;;;;25.78;46.20;95143.81;5012743;28;7252;-60
2022/10/27 09:06:53;;;;;;;;;;;;;;;25.78;46.19;95143.81;5024175;28;7218;-60
2022/10/27 09:09:37;;;;;;;;;;;;;;;25.78;46.38;95141.06;5014040;28;7444;-60
2022/10/27 09:12:32;;;;;;;;;;;;;;;25.76;46.26;95140.03;5012375;28;7236;-60
2022/10/27 09:15:08;;;;;;;;;;;;;;;25.75;46.86;95139.28;5009016;28;8990;-60
2022/10/27 09:18:25;;;;;;;;;;;;;;;25.78;46.36;95146.56;5045650;28;7007;-60
2022/10/27 09:20:56;;;;;;;;;;;;;;;25.79;46.43;95148.09;4992001;28;7136;-61
2022/10/27 09:24:05;;;;;;;;;;;;;;;25.80;46.93;95140.56;4974906;28;7523;-60
2022/10/27 09:26:32;;;;;;;;;;;;;;;25.80;46.88;95135.81;4963615;28;7273;-61
2022/10/27 09:29:05;;;;;;;;;;;;;;;25.85;46.61;95137.84;4972210;28;7613;-61
2022/10/27 09:31:52;;;;;;;;;;;;;;;25.83;46.70;95136.84;4948102;28;7229;-61
2022/10/27 09:34:39;;;;;;;;;;;;;;;25.83;46.70;95142.34;4954705;28;7194;-60
2022/10/27 09:37:15;;;;;;;;;;;;;;;25.80;46.98;95141.31;4968240;28;8381;-60
2022/10/27 09:40:13;;;;;;;;;;;;;;;25.79;46.15;95142.59;4954848;28;9454;-60
2022/10/27 09:43:05;;;;;;;;;;;;;;;25.80;46.64;95143.31;4893796;29;7264;-60
2022/10/27 09:45:32;;;;;;;;;;;;;;;25.78;46.09;95135.56;4880552;29;9387;-60
2022/10/27 09:48:19;;;;;;;;;;;;;;;25.79;47.16;95128.81;4881195;29;7310;-61
2022/10/27 09:50:51;;;;;;;;;;;;;;;25.80;46.82;95133.06;4886025;29;7068;-60
2022/10/27 09:54:09;;;;;;;;;;;;;;;25.80;47.21;95135.81;4885938;29;7632;-61
2022/10/27 09:56:45;;;;;;;;;;;;;;;25.80;47.24;95138.56;4904746;29;9372;-60
2022/10/27 09:59:31;;;;;;;;;;;;;;;25.79;46.48;95142.59;4895866;29;7283;-61
2022/10/27 10:02:05;;;;;;;;;;;;;;;25.78;46.71;95149.34;4892909;29;7421;-61
2022/10/27 10:04:44;;;;;;;;;;;;;;;25.78;46.67;95146.56;4889653;29;7009;-61
2022/10/27 10:07:32;;;;;;;;;;;;;;;25.79;46.90;95159.13;4910132;29;7003;-61
2022/10/27 10:10:20;;;;;;;;;;;;;;;25.79;46.75;95150.84;4900430;29;7534;-61
2022/10/27 10:13:00;;;;;;;;;;;;;;;25.80;46.73;95148.84;4907682;29;8037;-60
2022/10/27 10:16:09;;;;;;;;;;;;;;;25.82;46.96;95144.34;4886036;29;9405;-61
2022/10/27 10:18:59;;;;;;;;;;;;;;;25.83;46.97;95145.84;4927039;28;7250;-61
2022/10/27 10:21:50;;;;;;;;;;;;;;;25.83;46.72;95151.38;5026567;28;7247;-61
2022/10/27 10:24:36;;;;;;;;;;;;;;;25.85;47.05;95154.38;5004443;28;8713;-61
2022/10/27 10:27:05;;;;;;;;;;;;;;;25.87;47.32;95157.41;5039572;28;7265;-61
2022/10/27 10:29:43;;;;;;;;;;;;;;;25.86;47.41;95153.13;5008536;28;7537;-61
2022/10/27 10:32:21;;;;;;;;;;;;;;;25.86;46.72;95150.38;5007135;28;7151;-60
2022/10/27 10:34:56;;;;;;;;;;;;;;;25.87;47.42;95157.41;5008505;28;7398;-61
2022/10/27 10:37:54;;;;;;;;;;;;;;;25.86;47.33;95150.38;5040970;28;9410;-60
2022/10/27 10:40:29;;;;;;;;;;;;;;;25.83;47.74;95148.63;4961277;28;7158;-61
2022/10/27 10:43:19;;;;;;;;;;;;;;;25.83;47.45;95151.38;4962315;28;7600;-61
2022/10/27 10:45:51;;;;;;;;;;;;;;;25.86;47.72;95149.63;4965906;28;7353;-61
2022/10/27 10:48:20;;;;;;;;;;;;;;;25.84;47.48;95144.59;4947517;28;6963;-61
2022/10/27 10:50:58;;;;;;;;;;;;;;;25.88;47.55;95144.38;4968408;28;9028;-60
2022/10/27 10:53:49;;;;;;;;;;;;;;;25.84;47.29;95133.56;4955142;28;7312;-61
2022/10/27 10:56:28;;;;;;;;;;;;;;;25.83;47.93;95126.56;4945499;28;7014;-61
2022/10/27 10:59:28;;;;;;;;;;;;;;;25.86;47.34;95135.84;4968216;28;9080;-61
2022/10/27 11:02:21;;;;;;;;;;;;;;;25.87;47.27;95146.38;4913505;29;7761;-61
2022/10/27 11:05:11;;;;;;;;;;;;;;;25.88;47.27;95153.38;4897854;29;7910;-61
2022/10/27 11:07:50;;;;;;;;;;;;;;;25.90;47.82;95136.38;4904440;29;7099;-61
2022/10/27 11:10:23;;;;;;;;;;;;;;;25.90;47.30;95142.59;4903667;29;9160;-61
2022/10/27 11:13:30;;;;;;;;;;;;;;;25.92;48.04;95142.91;4896151;29;7129;-61
2022/10/27 11:16:02;;;;;;;;;;;;;;;25.94;47.43;95126.63;4910910;29;9505;-62
2022/10/27 11:18:37;;;;;;;;;;;;;;;25.95;47.21;95128.09;4921938;28;7049;-62
2022/10/27 11:21:17;;;;;;;;;;;;;;;25.92;47.89;95126.34;4946135;28;9058;-61
2022/10/27 11:24:21;;;;;;;;;;;;;;;25.97;48.04;95127.59;4940380;28;8957;-61
2022/10/27 11:27:22;;;;;;;;;;;;;;;25.99;47.51;95128.63;4881240;29;7823;-61
2022/10/27 11:30:19;;;;;;;;;;;;;;;26.00;47.83;95123.88;4879146;29;7311;-61
2022/10/27 11:33:02;;;;;;;;;;;;;;;26.02;47.33;95122.13;4863957;29;7067;-61
2022/10/27 11:36:17;;;;;;;;;;;;;;;26.05;47.74;95126.66;4877218;29;7355;-60
2022/10/27 11:39:40;;;;;;;;;;;;;;;26.09;47.07;95120.91;4920036;29;7001;-61
2022/10/27 11:42:36;;;;;;;;;;;;;;;26.10;46.92;95111.38;4876732;29;8195;-61
2022/10/27 11:45:55;;;;;;;;;;;;;;;26.09;46.98;95110.66;4892379;29;7257;-60
2022/10/27 11:48:34;;;;;;;;;;;;;;;26.08;47.50;95120.16;4894445;29;7697;-61
2022/10/27 11:51:28;;;;;;;;;;;;;;;26.10;47.88;95116.91;4893848;29;7210;-61
2022/10/27 11:54:03;;;;;;;;;;;;;;;26.12;47.26;95117.19;4897559;29;7286;-61
2022/10/27 11:56:34;;;;;;;;;;;;;;;26.11;47.47;95113.66;4895563;29;7218;-60
2022/10/27 11:59:21;;;;;;;;;;;;;;;26.11;47.84;95110.91;4894652;29;7192;-61
2022/10/27 12:02:35;;;;;;;;;;;;;;;26.12;47.16;95106.88;4886450;29;7222;-61
2022/10/27 12:05:07;;;;;;;;;;;;;;;26.12;47.98;95098.63;4932858;29;7085;-61
2022/10/27 12:07:35;;;;;;;;;;;;;;;26.16;47.05;95107.41;4921084;29;9462;-61
2022/10/27 12:10:27;;;;;;;;;;;;;;;26.18;47.18;95109.69;4914007;29;7192;-61
2022/10/27 12:13:25;;;;;;;;;;;;;;;26.20;47.31;95109.94;4976151;28;7275;-61
2022/10/27 12:16:19;;;;;;;;;;;;;;;26.23;47.05;95108.91;5023649;28;7392;-61
2022/10/27 12:19:22;;;;;;;;;;;;;;;26.24;47.62;95107.69;5010951;28;6987;-61
2022/10/27 12:21:55;;;;;;;;;;;;;;;26.25;47.22;95113.94;4989130;28;9412;-61
2022/10/27 12:24:38;;;;;;;;;;;;;;;26.26;47.41;95105.19;4978370;28;7249;-61
2022/10/27 12:27:15;;;;;;;;;;;;;;;26.27;47.84;95100.41;4988568;28;7199;-61
2022/10/27 12:29:50;;;;;;;;;;;;;;;26.27;47.65;95095.66;4970126;28;7207;-61
2022/10/27 12:32:25;;;;;;;;;;;;;;;26.29;47.27;95098.69;4975588;28;7602;-61
2022/10/27 12:35:21;;;;;;;;;;;;;;;26.30;47.57;95099.41;4994204;28;7077;-61
2022/10/27 12:38:26;;;;;;;;;;;;;;;26.33;47.75;95099.19;4958685;28;7008;-61
2022/10/27 12:41:13;;;;;;;;;;;;;;;26.34;47.49;95094.41;4984406;28;7218;-61
2022/10/27 12:43:52;;;;;;;;;;;;;;;26.37;47.54;95090.66;4979421;28;7301;-61
2022/10/27 12:46:37;;;;;;;;;;;;;;;26.37;47.83;95085.13;4972832;28;7189;-61
2022/10/27 12:49:28;;;;;;;;;;;;;;;26.38;47.86;95089.41;4970318;28;7191;-61
2022/10/27 12:52:39;;;;;;;;;;;;;;;26.37;47.64;95079.63;4992695;28;7380;-61
2022/10/27 12:55:40;;;;;;;;;;;;;;;26.38;48.05;95072.88;4927405;28;7143;-61
2022/10/27 12:58:43;;;;;;;;;;;;;;;26.38;47.37;95065.31;4958231;28;7376;-61
2022/10/27 13:01:37;;;;;;;;;;;;;;;26.37;47.44;95066.59;4954189;28;8799;-61
2022/10/27 13:04:15;;;;;;;;;;;;;;;26.40;47.57;95070.34;4964495;28;7223;-60
2022/10/27 13:07:03;;;;;;;;;;;;;;;26.41;47.53;95075.38;4954597;28;7279;-60
2022/10/27 13:10:07;;;;;;;;;;;;;;;26.42;47.98;95067.84;4971029;28;9469;-61
2022/10/27 13:12:42;;;;;;;;;;;;;;;26.44;48.20;95071.63;4934803;29;6986;-61
2022/10/27 13:15:46;;;;;;;;;;;;;;;26.46;47.94;95074.63;4933013;29;7271;-60
2022/10/27 13:18:22;;;;;;;;;;;;;;;26.50;47.97;95071.59;4926633;29;7450;-61
2022/10/27 13:21:07;;;;;;;;;;;;;;;26.54;47.98;95072.09;4916782;29;9305;-61
2022/10/27 13:23:52;;;;;;;;;;;;;;;26.55;47.60;95065.34;4901569;29;7330;-61
2022/10/27 13:26:46;;;;;;;;;;;;;;;26.57;47.86;95065.59;4916806;29;7104;-61
2022/10/27 13:29:38;;;;;;;;;;;;;;;26.59;47.62;95072.13;4901335;29;7425;-61
2022/10/27 13:32:21;;;;;;;;;;;;;;;26.62;47.51;95071.09;4902185;29;7392;-61
2022/10/27 13:35:02;;;;;;;;;;;;;;;26.65;47.00;95069.34;4936161;29;7183;-61
2022/10/27 13:37:47;;;;;;;;;;;;;;;26.66;47.09;95049.56;4951709;28;7374;-61
2022/10/27 13:40:19;;;;;;;;;;;;;;;26.67;47.36;95066.84;4912231;29;7607;-60
2022/10/27 13:42:51;;;;;;;;;;;;;;;26.70;47.52;95066.63;4932631;28;7298;-61
2022/10/27 13:45:27;;;;;;;;;;;;;;;26.74;47.47;95063.63;4912470;29;7228;-60
2022/10/27 13:48:10;;;;;;;;;;;;;;;26.75;46.64;95067.91;4934961;28;9020;-61
2022/10/27 13:50:42;;;;;;;;;;;;;;;26.77;46.96;95062.63;4978528;28;7316;-60
2022/10/27 13:53:16;;;;;;;;;;;;;;;26.81;46.82;95068.63;4977029;28;8097;-61
2022/10/27 13:55:50;;;;;;;;;;;;;;;26.86;46.82;95070.66;4992476;28;7309;-60
2022/10/27 13:58:58;;;;;;;;;;;;;;;26.89;46.61;95077.91;5007454;28;7230;-61
2022/10/27 14:01:45;;;;;;;;;;;;;;;26.90;46.72;95068.38;4955642;28;8737;-60